sensor_id;sensor_type;location;lat;lon;timestamp;P1;durP1;ratioP1;P2;durP2;ratioP2
67352;SDS011;54238;52.278;21.056;2022-12-11T00:01:21;68.20;;;28.30;;
67352;SDS011;54238;52.278;21.056;2022-12-11T00:03:59;69.40;;;28.50;;
67352;SDS011;54238;52.278;21.056;2022-12-11T00:08:58;64.10;;;23.50;;
67352;SDS011;54238;52.278;21.056;2022-12-11T00:11:28;69.80;;;26.60;;
67352;SDS011;54238;52.278;21.056;2022-12-11T00:13:59;65.40;;;27.10;;
67352;SDS011;54238;52.278;21.056;2022-12-11T00:16:29;69.90;;;28.10;;
67352;SDS011;54238;52.278;21.056;2022-12-11T00:18:56;74.20;;;28.50;;
67352;SDS011;54238;52.278;21.056;2022-12-11T00:21:28;74.00;;;29.50;;
67352;SDS011;54238;52.278;21.056;2022-12-11T00:23:55;63.80;;;27.60;;
67352;SDS011;54238;52.278;21.056;2022-12-11T00:26:22;69.80;;;26.60;;
67352;SDS011;54238;52.278;21.056;2022-12-11T00:28:54;66.20;;;27.50;;
67352;SDS011;54238;52.278;21.056;2022-12-11T00:31:25;74.30;;;28.70;;
67352;SDS011;54238;52.278;21.056;2022-12-11T00:33:54;68.70;;;27.20;;
67352;SDS011;54238;52.278;21.056;2022-12-11T00:36:25;65.00;;;26.10;;
67352;SDS011;54238;52.278;21.056;2022-12-11T00:38:55;60.50;;;25.10;;
67352;SDS011;54238;52.278;21.056;2022-12-11T00:41:25;61.30;;;25.40;;
67352;SDS011;54238;52.278;21.056;2022-12-11T00:43:56;64.60;;;25.10;;
67352;SDS011;54238;52.278;21.056;2022-12-11T00:46:23;58.70;;;23.50;;
67352;SDS011;54238;52.278;21.056;2022-12-11T00:48:55;50.00;;;22.10;;
67352;SDS011;54238;52.278;21.056;2022-12-11T00:51:27;59.30;;;24.70;;
67352;SDS011;54238;52.278;21.056;2022-12-11T00:53:59;61.00;;;24.80;;
67352;SDS011;54238;52.278;21.056;2022-12-11T00:56:26;58.40;;;23.60;;
67352;SDS011;54238;52.278;21.056;2022-12-11T00:58:53;55.70;;;24.10;;
67352;SDS011;54238;52.278;21.056;2022-12-11T01:01:22;56.30;;;24.20;;
67352;SDS011;54238;52.278;21.056;2022-12-11T01:03:51;52.10;;;23.70;;
67352;SDS011;54238;52.278;21.056;2022-12-11T01:06:22;51.50;;;23.50;;
67352;SDS011;54238;52.278;21.056;2022-12-11T01:08:53;57.50;;;23.50;;
67352;SDS011;54238;52.278;21.056;2022-12-11T01:11:41;55.90;;;22.70;;
67352;SDS011;54238;52.278;21.056;2022-12-11T01:14:12;43.90;;;18.60;;
67352;SDS011;54238;52.278;21.056;2022-12-11T01:16:40;51.10;;;21.40;;
67352;SDS011;54238;52.278;21.056;2022-12-11T01:19:09;58.00;;;22.00;;
67352;SDS011;54238;52.278;21.056;2022-12-11T01:21:36;57.60;;;24.30;;
67352;SDS011;54238;52.278;21.056;2022-12-11T01:24:06;51.00;;;22.40;;
67352;SDS011;54238;52.278;21.056;2022-12-11T01:29:05;47.30;;;20.40;;
67352;SDS011;54238;52.278;21.056;2022-12-11T01:31:34;50.50;;;20.40;;
67352;SDS011;54238;52.278;21.056;2022-12-11T01:34:04;47.90;;;20.90;;
67352;SDS011;54238;52.278;21.056;2022-12-11T01:36:33;47.80;;;20.40;;
67352;SDS011;54238;52.278;21.056;2022-12-11T01:39:00;44.80;;;16.50;;
67352;SDS011;54238;52.278;21.056;2022-12-11T01:41:28;41.60;;;18.40;;
67352;SDS011;54238;52.278;21.056;2022-12-11T01:45:11;41.60;;;17.10;;
67352;SDS011;54238;52.278;21.056;2022-12-11T01:46:59;46.70;;;19.00;;
67352;SDS011;54238;52.278;21.056;2022-12-11T01:49:29;41.80;;;17.00;;
67352;SDS011;54238;52.278;21.056;2022-12-11T01:52:04;43.70;;;19.10;;
67352;SDS011;54238;52.278;21.056;2022-12-11T01:54:38;53.80;;;20.30;;
67352;SDS011;54238;52.278;21.056;2022-12-11T01:57:08;48.20;;;20.30;;
67352;SDS011;54238;52.278;21.056;2022-12-11T01:59:43;44.30;;;19.60;;
67352;SDS011;54238;52.278;21.056;2022-12-11T02:02:23;47.50;;;20.40;;
67352;SDS011;54238;52.278;21.056;2022-12-11T02:04:56;41.90;;;18.60;;
67352;SDS011;54238;52.278;21.056;2022-12-11T02:07:26;36.90;;;16.10;;
67352;SDS011;54238;52.278;21.056;2022-12-11T02:09:54;48.00;;;19.80;;
67352;SDS011;54238;52.278;21.056;2022-12-11T02:15:46;40.80;;;18.10;;
67352;SDS011;54238;52.278;21.056;2022-12-11T02:18:51;50.80;;;19.50;;
67352;SDS011;54238;52.278;21.056;2022-12-11T02:21:25;40.10;;;19.30;;
67352;SDS011;54238;52.278;21.056;2022-12-11T02:27:29;40.50;;;18.40;;
67352;SDS011;54238;52.278;21.056;2022-12-11T02:30:10;43.80;;;18.40;;
67352;SDS011;54238;52.278;21.056;2022-12-11T02:32:45;44.00;;;18.60;;
67352;SDS011;54238;52.278;21.056;2022-12-11T02:35:20;40.60;;;17.80;;
67352;SDS011;54238;52.278;21.056;2022-12-11T02:37:55;40.00;;;17.90;;
67352;SDS011;54238;52.278;21.056;2022-12-11T02:40:30;43.20;;;18.60;;
67352;SDS011;54238;52.278;21.056;2022-12-11T02:43:05;42.90;;;19.10;;
67352;SDS011;54238;52.278;21.056;2022-12-11T02:45:36;38.00;;;16.90;;
67352;SDS011;54238;52.278;21.056;2022-12-11T02:48:08;40.30;;;17.60;;
67352;SDS011;54238;52.278;21.056;2022-12-11T02:50:43;34.40;;;14.70;;
67352;SDS011;54238;52.278;21.056;2022-12-11T02:53:21;45.20;;;18.50;;
67352;SDS011;54238;52.278;21.056;2022-12-11T02:56:05;46.50;;;19.70;;
67352;SDS011;54238;52.278;21.056;2022-12-11T02:58:56;49.60;;;21.20;;
67352;SDS011;54238;52.278;21.056;2022-12-11T03:01:28;43.80;;;19.30;;
67352;SDS011;54238;52.278;21.056;2022-12-11T03:03:56;43.30;;;20.40;;
67352;SDS011;54238;52.278;21.056;2022-12-11T03:06:31;41.70;;;19.10;;
67352;SDS011;54238;52.278;21.056;2022-12-11T03:09:05;44.80;;;19.40;;
67352;SDS011;54238;52.278;21.056;2022-12-11T03:11:37;45.20;;;18.60;;
67352;SDS011;54238;52.278;21.056;2022-12-11T03:14:04;33.20;;;15.80;;
67352;SDS011;54238;52.278;21.056;2022-12-11T03:16:36;41.10;;;17.30;;
67352;SDS011;54238;52.278;21.056;2022-12-11T03:22:09;37.80;;;15.10;;
67352;SDS011;54238;52.278;21.056;2022-12-11T03:24:54;35.70;;;16.10;;
67352;SDS011;54238;52.278;21.056;2022-12-11T03:27:35;44.40;;;19.80;;
67352;SDS011;54238;52.278;21.056;2022-12-11T03:30:18;45.60;;;19.30;;
67352;SDS011;54238;52.278;21.056;2022-12-11T03:32:54;44.70;;;20.00;;
67352;SDS011;54238;52.278;21.056;2022-12-11T03:35:39;40.50;;;17.00;;
67352;SDS011;54238;52.278;21.056;2022-12-11T03:38:17;38.10;;;18.30;;
67352;SDS011;54238;52.278;21.056;2022-12-11T03:41:03;36.20;;;16.70;;
67352;SDS011;54238;52.278;21.056;2022-12-11T03:43:33;37.20;;;17.40;;
67352;SDS011;54238;52.278;21.056;2022-12-11T03:46:07;31.50;;;15.50;;
67352;SDS011;54238;52.278;21.056;2022-12-11T03:48:40;37.00;;;17.50;;
67352;SDS011;54238;52.278;21.056;2022-12-11T03:51:14;40.00;;;18.90;;
67352;SDS011;54238;52.278;21.056;2022-12-11T03:53:50;43.80;;;19.70;;
67352;SDS011;54238;52.278;21.056;2022-12-11T03:56:23;36.20;;;16.70;;
67352;SDS011;54238;52.278;21.056;2022-12-11T03:58:56;39.80;;;17.70;;
67352;SDS011;54238;52.278;21.056;2022-12-11T04:01:25;40.20;;;17.80;;
67352;SDS011;54238;52.278;21.056;2022-12-11T04:03:55;31.60;;;14.90;;
67352;SDS011;54238;52.278;21.056;2022-12-11T04:06:27;27.70;;;13.80;;
67352;SDS011;54238;52.278;21.056;2022-12-11T04:08:58;46.50;;;19.90;;
67352;SDS011;54238;52.278;21.056;2022-12-11T04:11:25;43.90;;;19.50;;
67352;SDS011;54238;52.278;21.056;2022-12-11T04:14:10;38.50;;;19.10;;
67352;SDS011;54238;52.278;21.056;2022-12-11T04:17:00;48.90;;;19.30;;
67352;SDS011;54238;52.278;21.056;2022-12-11T04:19:27;41.20;;;19.90;;
67352;SDS011;54238;52.278;21.056;2022-12-11T04:22:17;47.90;;;19.10;;
67352;SDS011;54238;52.278;21.056;2022-12-11T04:25:06;48.00;;;19.40;;
67352;SDS011;54238;52.278;21.056;2022-12-11T04:27:43;45.00;;;19.00;;
67352;SDS011;54238;52.278;21.056;2022-12-11T04:30:24;43.10;;;18.90;;
67352;SDS011;54238;52.278;21.056;2022-12-11T04:32:53;36.90;;;17.20;;
67352;SDS011;54238;52.278;21.056;2022-12-11T04:35:25;46.30;;;19.60;;
67352;SDS011;54238;52.278;21.056;2022-12-11T04:37:53;33.10;;;15.90;;
67352;SDS011;54238;52.278;21.056;2022-12-11T04:40:21;39.30;;;17.30;;
67352;SDS011;54238;52.278;21.056;2022-12-11T04:42:51;42.00;;;18.80;;
67352;SDS011;54238;52.278;21.056;2022-12-11T04:45:18;43.70;;;20.00;;
67352;SDS011;54238;52.278;21.056;2022-12-11T04:47:46;41.90;;;19.40;;
67352;SDS011;54238;52.278;21.056;2022-12-11T04:50:16;40.40;;;19.40;;
67352;SDS011;54238;52.278;21.056;2022-12-11T04:52:53;41.00;;;19.80;;
67352;SDS011;54238;52.278;21.056;2022-12-11T04:55:21;39.30;;;19.30;;
67352;SDS011;54238;52.278;21.056;2022-12-11T04:57:52;38.60;;;19.20;;
67352;SDS011;54238;52.278;21.056;2022-12-11T05:00:19;42.20;;;19.20;;
67352;SDS011;54238;52.278;21.056;2022-12-11T05:02:50;37.00;;;17.40;;
67352;SDS011;54238;52.278;21.056;2022-12-11T05:05:17;39.30;;;17.80;;
67352;SDS011;54238;52.278;21.056;2022-12-11T05:07:44;37.50;;;17.30;;
67352;SDS011;54238;52.278;21.056;2022-12-11T05:10:11;36.80;;;17.50;;
67352;SDS011;54238;52.278;21.056;2022-12-11T05:12:40;37.90;;;16.80;;
67352;SDS011;54238;52.278;21.056;2022-12-11T05:15:10;36.30;;;18.10;;
67352;SDS011;54238;52.278;21.056;2022-12-11T05:17:37;38.50;;;17.80;;
67352;SDS011;54238;52.278;21.056;2022-12-11T05:20:05;36.50;;;17.50;;
67352;SDS011;54238;52.278;21.056;2022-12-11T05:22:38;37.70;;;17.60;;
67352;SDS011;54238;52.278;21.056;2022-12-11T05:25:06;31.60;;;15.70;;
67352;SDS011;54238;52.278;21.056;2022-12-11T05:27:41;35.80;;;17.20;;
67352;SDS011;54238;52.278;21.056;2022-12-11T05:30:12;35.40;;;17.30;;
67352;SDS011;54238;52.278;21.056;2022-12-11T05:32:44;36.80;;;17.50;;
67352;SDS011;54238;52.278;21.056;2022-12-11T05:35:14;37.20;;;16.70;;
67352;SDS011;54238;52.278;21.056;2022-12-11T05:37:46;36.10;;;15.10;;
67352;SDS011;54238;52.278;21.056;2022-12-11T05:40:15;34.40;;;16.20;;
67352;SDS011;54238;52.278;21.056;2022-12-11T05:42:45;36.60;;;15.10;;
67352;SDS011;54238;52.278;21.056;2022-12-11T05:45:14;32.50;;;15.70;;
67352;SDS011;54238;52.278;21.056;2022-12-11T05:47:46;36.90;;;16.60;;
67352;SDS011;54238;52.278;21.056;2022-12-11T05:50:13;29.00;;;15.40;;
67352;SDS011;54238;52.278;21.056;2022-12-11T05:52:41;31.00;;;15.10;;
67352;SDS011;54238;52.278;21.056;2022-12-11T05:55:10;30.70;;;14.30;;
67352;SDS011;54238;52.278;21.056;2022-12-11T05:57:42;23.10;;;12.90;;
67352;SDS011;54238;52.278;21.056;2022-12-11T06:00:11;30.50;;;12.90;;
67352;SDS011;54238;52.278;21.056;2022-12-11T06:02:42;21.60;;;10.70;;
67352;SDS011;54238;52.278;21.056;2022-12-11T06:05:13;26.40;;;11.50;;
67352;SDS011;54238;52.278;21.056;2022-12-11T06:07:43;26.50;;;11.90;;
67352;SDS011;54238;52.278;21.056;2022-12-11T06:10:10;27.50;;;13.00;;
67352;SDS011;54238;52.278;21.056;2022-12-11T06:12:38;23.70;;;12.00;;
67352;SDS011;54238;52.278;21.056;2022-12-11T06:15:09;23.20;;;11.10;;
67352;SDS011;54238;52.278;21.056;2022-12-11T06:17:46;25.00;;;11.40;;
67352;SDS011;54238;52.278;21.056;2022-12-11T06:20:16;27.70;;;13.10;;
67352;SDS011;54238;52.278;21.056;2022-12-11T06:22:50;30.70;;;14.00;;
67352;SDS011;54238;52.278;21.056;2022-12-11T06:27:50;27.20;;;13.30;;
67352;SDS011;54238;52.278;21.056;2022-12-11T06:30:19;25.30;;;13.60;;
67352;SDS011;54238;52.278;21.056;2022-12-11T06:32:47;33.20;;;14.30;;
67352;SDS011;54238;52.278;21.056;2022-12-11T06:35:21;33.30;;;14.00;;
67352;SDS011;54238;52.278;21.056;2022-12-11T06:37:50;27.50;;;14.80;;
67352;SDS011;54238;52.278;21.056;2022-12-11T06:40:21;32.60;;;14.30;;
67352;SDS011;54238;52.278;21.056;2022-12-11T06:42:51;30.90;;;14.90;;
67352;SDS011;54238;52.278;21.056;2022-12-11T06:45:25;29.00;;;14.00;;
67352;SDS011;54238;52.278;21.056;2022-12-11T06:47:52;25.40;;;12.60;;
67352;SDS011;54238;52.278;21.056;2022-12-11T06:50:21;22.10;;;12.20;;
67352;SDS011;54238;52.278;21.056;2022-12-11T06:52:51;23.60;;;12.20;;
67352;SDS011;54238;52.278;21.056;2022-12-11T06:55:18;25.50;;;12.50;;
67352;SDS011;54238;52.278;21.056;2022-12-11T06:57:46;24.00;;;12.10;;
67352;SDS011;54238;52.278;21.056;2022-12-11T07:00:18;16.70;;;9.90;;
67352;SDS011;54238;52.278;21.056;2022-12-11T07:02:45;18.10;;;10.00;;
67352;SDS011;54238;52.278;21.056;2022-12-11T07:05:12;20.90;;;10.80;;
67352;SDS011;54238;52.278;21.056;2022-12-11T07:07:39;23.50;;;11.40;;
67352;SDS011;54238;52.278;21.056;2022-12-11T07:10:07;23.90;;;10.80;;
67352;SDS011;54238;52.278;21.056;2022-12-11T07:12:37;19.90;;;10.00;;
67352;SDS011;54238;52.278;21.056;2022-12-11T07:15:10;19.20;;;10.20;;
67352;SDS011;54238;52.278;21.056;2022-12-11T07:17:38;25.80;;;11.10;;
67352;SDS011;54238;52.278;21.056;2022-12-11T07:20:05;19.50;;;11.00;;
67352;SDS011;54238;52.278;21.056;2022-12-11T07:22:36;31.50;;;12.10;;
67352;SDS011;54238;52.278;21.056;2022-12-11T07:25:03;23.70;;;11.60;;
67352;SDS011;54238;52.278;21.056;2022-12-11T07:27:38;22.70;;;11.00;;
67352;SDS011;54238;52.278;21.056;2022-12-11T07:30:13;22.40;;;11.70;;
67352;SDS011;54238;52.278;21.056;2022-12-11T07:32:43;27.20;;;12.30;;
67352;SDS011;54238;52.278;21.056;2022-12-11T07:35:10;24.50;;;12.60;;
67352;SDS011;54238;52.278;21.056;2022-12-11T07:37:42;24.60;;;13.00;;
67352;SDS011;54238;52.278;21.056;2022-12-11T07:40:10;27.60;;;12.90;;
67352;SDS011;54238;52.278;21.056;2022-12-11T07:42:38;25.70;;;12.70;;
67352;SDS011;54238;52.278;21.056;2022-12-11T07:45:07;25.00;;;12.50;;
67352;SDS011;54238;52.278;21.056;2022-12-11T07:47:35;29.80;;;14.80;;
67352;SDS011;54238;52.278;21.056;2022-12-11T07:50:03;30.60;;;15.00;;
67352;SDS011;54238;52.278;21.056;2022-12-11T07:52:34;35.80;;;15.70;;
67352;SDS011;54238;52.278;21.056;2022-12-11T07:55:06;30.90;;;15.50;;
67352;SDS011;54238;52.278;21.056;2022-12-11T07:57:35;28.70;;;14.80;;
67352;SDS011;54238;52.278;21.056;2022-12-11T08:00:04;26.90;;;14.70;;
67352;SDS011;54238;52.278;21.056;2022-12-11T08:02:34;28.90;;;13.90;;
67352;SDS011;54238;52.278;21.056;2022-12-11T08:05:04;20.30;;;9.70;;
67352;SDS011;54238;52.278;21.056;2022-12-11T08:07:35;29.90;;;13.60;;
67352;SDS011;54238;52.278;21.056;2022-12-11T08:10:04;30.60;;;15.10;;
67352;SDS011;54238;52.278;21.056;2022-12-11T08:12:38;28.80;;;15.40;;
67352;SDS011;54238;52.278;21.056;2022-12-11T08:15:10;27.20;;;15.30;;
67352;SDS011;54238;52.278;21.056;2022-12-11T08:17:40;27.70;;;14.90;;
67352;SDS011;54238;52.278;21.056;2022-12-11T08:20:07;28.20;;;14.40;;
67352;SDS011;54238;52.278;21.056;2022-12-11T08:22:35;24.70;;;13.00;;
67352;SDS011;54238;52.278;21.056;2022-12-11T08:25:10;26.40;;;13.60;;
67352;SDS011;54238;52.278;21.056;2022-12-11T08:27:37;30.80;;;13.30;;
67352;SDS011;54238;52.278;21.056;2022-12-11T08:30:08;27.60;;;13.00;;
67352;SDS011;54238;52.278;21.056;2022-12-11T08:32:38;29.40;;;13.00;;
67352;SDS011;54238;52.278;21.056;2022-12-11T08:35:08;24.60;;;12.70;;
67352;SDS011;54238;52.278;21.056;2022-12-11T08:37:36;26.30;;;12.80;;
67352;SDS011;54238;52.278;21.056;2022-12-11T08:40:09;24.00;;;12.60;;
67352;SDS011;54238;52.278;21.056;2022-12-11T08:42:38;25.00;;;12.90;;
67352;SDS011;54238;52.278;21.056;2022-12-11T08:45:06;27.90;;;12.10;;
67352;SDS011;54238;52.278;21.056;2022-12-11T08:47:36;25.00;;;12.50;;
67352;SDS011;54238;52.278;21.056;2022-12-11T08:50:06;28.20;;;12.70;;
67352;SDS011;54238;52.278;21.056;2022-12-11T08:52:34;25.80;;;12.40;;
67352;SDS011;54238;52.278;21.056;2022-12-11T08:55:01;30.00;;;14.20;;
67352;SDS011;54238;52.278;21.056;2022-12-11T08:57:29;25.20;;;13.20;;
67352;SDS011;54238;52.278;21.056;2022-12-11T08:59:56;23.00;;;12.40;;
67352;SDS011;54238;52.278;21.056;2022-12-11T09:02:23;25.30;;;13.00;;
67352;SDS011;54238;52.278;21.056;2022-12-11T09:04:56;31.90;;;14.60;;
67352;SDS011;54238;52.278;21.056;2022-12-11T09:07:26;27.00;;;12.80;;
67352;SDS011;54238;52.278;21.056;2022-12-11T09:09:55;23.70;;;12.60;;
67352;SDS011;54238;52.278;21.056;2022-12-11T09:12:26;27.40;;;12.30;;
67352;SDS011;54238;52.278;21.056;2022-12-11T09:14:56;26.60;;;12.50;;
67352;SDS011;54238;52.278;21.056;2022-12-11T09:17:23;21.90;;;11.40;;
67352;SDS011;54238;52.278;21.056;2022-12-11T09:19:53;25.60;;;12.90;;
67352;SDS011;54238;52.278;21.056;2022-12-11T09:22:20;23.40;;;10.90;;
67352;SDS011;54238;52.278;21.056;2022-12-11T09:24:50;25.70;;;12.00;;
67352;SDS011;54238;52.278;21.056;2022-12-11T09:27:18;28.00;;;13.50;;
67352;SDS011;54238;52.278;21.056;2022-12-11T09:29:49;29.60;;;12.90;;
67352;SDS011;54238;52.278;21.056;2022-12-11T09:32:19;27.50;;;13.20;;
67352;SDS011;54238;52.278;21.056;2022-12-11T09:34:51;25.30;;;12.70;;
67352;SDS011;54238;52.278;21.056;2022-12-11T09:37:23;28.40;;;11.90;;
67352;SDS011;54238;52.278;21.056;2022-12-11T09:39:57;24.90;;;12.70;;
67352;SDS011;54238;52.278;21.056;2022-12-11T09:45:11;26.00;;;12.30;;
67352;SDS011;54238;52.278;21.056;2022-12-11T09:47:45;23.30;;;11.50;;
67352;SDS011;54238;52.278;21.056;2022-12-11T09:50:29;27.60;;;13.00;;
67352;SDS011;54238;52.278;21.056;2022-12-11T09:56:24;23.10;;;11.60;;
67352;SDS011;54238;52.278;21.056;2022-12-11T09:59:09;25.50;;;11.60;;
67352;SDS011;54238;52.278;21.056;2022-12-11T10:16:02;23.40;;;11.30;;
67352;SDS011;54238;52.278;21.056;2022-12-11T10:18:40;24.10;;;12.10;;
67352;SDS011;54238;52.278;21.056;2022-12-11T10:21:10;20.50;;;11.70;;
67352;SDS011;54238;52.278;21.056;2022-12-11T10:24:00;28.10;;;11.70;;
67352;SDS011;54238;52.278;21.056;2022-12-11T10:26:30;25.00;;;12.50;;
67352;SDS011;54238;52.278;21.056;2022-12-11T10:29:12;24.70;;;11.80;;
67352;SDS011;54238;52.278;21.056;2022-12-11T10:31:57;19.40;;;9.70;;
67352;SDS011;54238;52.278;21.056;2022-12-11T10:34:34;21.00;;;11.00;;
67352;SDS011;54238;52.278;21.056;2022-12-11T10:37:05;18.80;;;10.10;;
67352;SDS011;54238;52.278;21.056;2022-12-11T10:39:33;18.90;;;9.50;;
67352;SDS011;54238;52.278;21.056;2022-12-11T10:42:17;18.00;;;9.00;;
67352;SDS011;54238;52.278;21.056;2022-12-11T10:47:29;23.60;;;11.30;;
67352;SDS011;54238;52.278;21.056;2022-12-11T10:50:02;18.00;;;9.50;;
67352;SDS011;54238;52.278;21.056;2022-12-11T10:52:44;23.20;;;11.30;;
67352;SDS011;54238;52.278;21.056;2022-12-11T10:55:30;23.10;;;10.50;;
67352;SDS011;54238;52.278;21.056;2022-12-11T10:58:46;18.90;;;10.70;;
67352;SDS011;54238;52.278;21.056;2022-12-11T11:01:28;19.40;;;10.20;;
67352;SDS011;54238;52.278;21.056;2022-12-11T11:06:45;19.30;;;10.50;;
67352;SDS011;54238;52.278;21.056;2022-12-11T11:09:46;18.10;;;9.50;;
67352;SDS011;54238;52.278;21.056;2022-12-11T11:17:53;15.90;;;7.70;;
67352;SDS011;54238;52.278;21.056;2022-12-11T11:20:24;14.30;;;8.10;;
67352;SDS011;54238;52.278;21.056;2022-12-11T11:23:02;18.10;;;8.70;;
67352;SDS011;54238;52.278;21.056;2022-12-11T11:25:56;15.80;;;9.00;;
67352;SDS011;54238;52.278;21.056;2022-12-11T11:28:35;10.80;;;6.10;;
67352;SDS011;54238;52.278;21.056;2022-12-11T11:31:14;17.80;;;9.40;;
67352;SDS011;54238;52.278;21.056;2022-12-11T11:33:56;19.40;;;10.60;;
67352;SDS011;54238;52.278;21.056;2022-12-11T11:36:34;15.00;;;8.40;;
67352;SDS011;54238;52.278;21.056;2022-12-11T11:39:36;16.40;;;9.60;;
67352;SDS011;54238;52.278;21.056;2022-12-11T11:45:04;15.90;;;8.70;;
67352;SDS011;54238;52.278;21.056;2022-12-11T11:47:50;14.20;;;8.50;;
67352;SDS011;54238;52.278;21.056;2022-12-11T11:50:29;11.80;;;7.90;;
67352;SDS011;54238;52.278;21.056;2022-12-11T11:53:06;16.10;;;8.80;;
67352;SDS011;54238;52.278;21.056;2022-12-11T11:59:29;14.50;;;7.80;;
67352;SDS011;54238;52.278;21.056;2022-12-11T12:02:16;12.50;;;7.70;;
67352;SDS011;54238;52.278;21.056;2022-12-11T12:04:48;9.70;;;5.70;;
67352;SDS011;54238;52.278;21.056;2022-12-11T12:07:35;16.90;;;8.40;;
67352;SDS011;54238;52.278;21.056;2022-12-11T12:10:21;14.20;;;8.10;;
67352;SDS011;54238;52.278;21.056;2022-12-11T12:13:06;14.80;;;8.60;;
67352;SDS011;54238;52.278;21.056;2022-12-11T12:21:30;16.20;;;8.30;;
67352;SDS011;54238;52.278;21.056;2022-12-11T12:27:45;17.10;;;8.70;;
67352;SDS011;54238;52.278;21.056;2022-12-11T12:30:22;18.60;;;9.50;;
67352;SDS011;54238;52.278;21.056;2022-12-11T12:38:07;22.00;;;10.40;;
67352;SDS011;54238;52.278;21.056;2022-12-11T12:43:50;16.80;;;8.90;;
67352;SDS011;54238;52.278;21.056;2022-12-11T12:46:39;18.90;;;10.00;;
67352;SDS011;54238;52.278;21.056;2022-12-11T12:49:29;19.00;;;10.10;;
67352;SDS011;54238;52.278;21.056;2022-12-11T12:54:31;16.90;;;7.50;;
67352;SDS011;54238;52.278;21.056;2022-12-11T12:57:04;28.80;;;12.00;;
67352;SDS011;54238;52.278;21.056;2022-12-11T12:59:33;25.30;;;11.40;;
67352;SDS011;54238;52.278;21.056;2022-12-11T13:02:03;22.00;;;12.20;;
67352;SDS011;54238;52.278;21.056;2022-12-11T13:04:40;25.40;;;12.00;;
67352;SDS011;54238;52.278;21.056;2022-12-11T13:07:16;18.90;;;10.30;;
67352;SDS011;54238;52.278;21.056;2022-12-11T13:12:57;21.80;;;10.90;;
67352;SDS011;54238;52.278;21.056;2022-12-11T13:18:36;13.00;;;7.20;;
67352;SDS011;54238;52.278;21.056;2022-12-11T13:26:39;22.00;;;10.30;;
67352;SDS011;54238;52.278;21.056;2022-12-11T13:34:45;20.90;;;11.10;;
67352;SDS011;54238;52.278;21.056;2022-12-11T13:37:41;23.70;;;10.40;;
67352;SDS011;54238;52.278;21.056;2022-12-11T13:40:28;16.80;;;8.90;;
67352;SDS011;54238;52.278;21.056;2022-12-11T13:43:16;16.90;;;8.50;;
67352;SDS011;54238;52.278;21.056;2022-12-11T13:46:00;20.00;;;10.10;;
67352;SDS011;54238;52.278;21.056;2022-12-11T13:48:43;11.20;;;6.40;;
67352;SDS011;54238;52.278;21.056;2022-12-11T13:51:18;17.00;;;8.70;;
67352;SDS011;54238;52.278;21.056;2022-12-11T13:53:48;21.60;;;11.10;;
67352;SDS011;54238;52.278;21.056;2022-12-11T13:56:30;22.80;;;11.10;;
67352;SDS011;54238;52.278;21.056;2022-12-11T13:58:57;18.00;;;10.90;;
67352;SDS011;54238;52.278;21.056;2022-12-11T14:01:32;15.10;;;7.70;;
67352;SDS011;54238;52.278;21.056;2022-12-11T14:04:04;20.50;;;9.50;;
67352;SDS011;54238;52.278;21.056;2022-12-11T14:06:36;16.80;;;8.90;;
67352;SDS011;54238;52.278;21.056;2022-12-11T14:09:13;16.30;;;8.00;;
67352;SDS011;54238;52.278;21.056;2022-12-11T14:11:47;14.00;;;7.80;;
67352;SDS011;54238;52.278;21.056;2022-12-11T14:14:40;18.10;;;10.30;;
67352;SDS011;54238;52.278;21.056;2022-12-11T14:17:19;17.40;;;9.50;;
67352;SDS011;54238;52.278;21.056;2022-12-11T14:19:56;14.70;;;7.50;;
67352;SDS011;54238;52.278;21.056;2022-12-11T14:22:29;18.80;;;9.30;;
67352;SDS011;54238;52.278;21.056;2022-12-11T14:24:59;21.00;;;10.10;;
67352;SDS011;54238;52.278;21.056;2022-12-11T14:27:54;18.90;;;9.60;;
67352;SDS011;54238;52.278;21.056;2022-12-11T14:30:34;21.10;;;9.80;;
67352;SDS011;54238;52.278;21.056;2022-12-11T14:35:40;16.10;;;8.80;;
67352;SDS011;54238;52.278;21.056;2022-12-11T14:38:23;18.30;;;10.10;;
67352;SDS011;54238;52.278;21.056;2022-12-11T14:41:00;16.50;;;9.10;;
67352;SDS011;54238;52.278;21.056;2022-12-11T14:43:40;17.30;;;9.20;;
67352;SDS011;54238;52.278;21.056;2022-12-11T14:46:18;18.10;;;9.20;;
67352;SDS011;54238;52.278;21.056;2022-12-11T14:49:00;16.50;;;8.20;;
67352;SDS011;54238;52.278;21.056;2022-12-11T14:51:38;14.80;;;8.70;;
67352;SDS011;54238;52.278;21.056;2022-12-11T14:54:18;12.40;;;6.50;;
67352;SDS011;54238;52.278;21.056;2022-12-11T14:56:53;13.00;;;6.20;;
67352;SDS011;54238;52.278;21.056;2022-12-11T14:59:28;14.30;;;7.50;;
67352;SDS011;54238;52.278;21.056;2022-12-11T15:02:16;12.50;;;6.90;;
67352;SDS011;54238;52.278;21.056;2022-12-11T15:05:18;18.30;;;9.90;;
67352;SDS011;54238;52.278;21.056;2022-12-11T15:08:15;15.50;;;8.30;;
67352;SDS011;54238;52.278;21.056;2022-12-11T15:13:34;17.80;;;10.00;;
67352;SDS011;54238;52.278;21.056;2022-12-11T15:16:05;18.70;;;10.00;;
67352;SDS011;54238;52.278;21.056;2022-12-11T15:18:39;17.70;;;10.30;;
67352;SDS011;54238;52.278;21.056;2022-12-11T15:21:10;20.30;;;9.80;;
67352;SDS011;54238;52.278;21.056;2022-12-11T15:26:12;16.80;;;8.50;;
67352;SDS011;54238;52.278;21.056;2022-12-11T15:28:42;14.60;;;6.90;;
67352;SDS011;54238;52.278;21.056;2022-12-11T15:31:33;16.70;;;9.20;;
67352;SDS011;54238;52.278;21.056;2022-12-11T15:34:20;16.90;;;8.80;;
67352;SDS011;54238;52.278;21.056;2022-12-11T15:36:48;11.90;;;6.10;;
67352;SDS011;54238;52.278;21.056;2022-12-11T15:39:16;12.90;;;7.30;;
67352;SDS011;54238;52.278;21.056;2022-12-11T15:41:50;17.00;;;10.00;;
67352;SDS011;54238;52.278;21.056;2022-12-11T15:44:22;22.50;;;10.70;;
67352;SDS011;54238;52.278;21.056;2022-12-11T15:49:18;17.50;;;8.80;;
67352;SDS011;54238;52.278;21.056;2022-12-11T15:51:49;14.90;;;8.60;;
67352;SDS011;54238;52.278;21.056;2022-12-11T15:54:20;18.70;;;9.50;;
67352;SDS011;54238;52.278;21.056;2022-12-11T15:56:50;21.20;;;10.40;;
67352;SDS011;54238;52.278;21.056;2022-12-11T15:59:18;19.70;;;10.40;;
67352;SDS011;54238;52.278;21.056;2022-12-11T16:01:45;19.80;;;9.90;;
67352;SDS011;54238;52.278;21.056;2022-12-11T16:04:12;13.30;;;7.60;;
67352;SDS011;54238;52.278;21.056;2022-12-11T16:06:43;21.00;;;8.60;;
67352;SDS011;54238;52.278;21.056;2022-12-11T16:09:13;14.40;;;8.80;;
67352;SDS011;54238;52.278;21.056;2022-12-11T16:11:42;12.80;;;6.60;;
67352;SDS011;54238;52.278;21.056;2022-12-11T16:14:11;18.00;;;9.60;;
67352;SDS011;54238;52.278;21.056;2022-12-11T16:16:41;19.40;;;10.10;;
67352;SDS011;54238;52.278;21.056;2022-12-11T16:19:13;15.30;;;8.20;;
67352;SDS011;54238;52.278;21.056;2022-12-11T16:21:42;18.00;;;9.80;;
67352;SDS011;54238;52.278;21.056;2022-12-11T16:24:11;12.70;;;7.00;;
67352;SDS011;54238;52.278;21.056;2022-12-11T16:26:42;18.50;;;9.90;;
67352;SDS011;54238;52.278;21.056;2022-12-11T16:29:11;16.60;;;8.40;;
67352;SDS011;54238;52.278;21.056;2022-12-11T16:31:45;15.80;;;8.00;;